Archival Weather

Tokyo Intl

Tokyo, Japan (RJTT)

Report from: Saturday, April 1, 2023 6:30 AM JST
Current time: Friday, July 19, 2024 11:04 AM JST

Current weather – Weather history – Daily summaries
Weather forecast

Temperature12.0°C (53.6°F)
Dew point10.0°C (50.0°F)
Winds 3 kts (1.5 m/s, 3.5 mph) Northwest (320°)
Clouds Sky clear
Altimeter30.00 in.Hg (1016 mB)
Relative humidity88 %
Density altitude-277 ft. (-84 m)
Remarks Ceiling and visibility OK
No significant changes expected in the next two hours
Flight conditions Visual Meteorological Conditions
Raw dataRJTT 312130Z 32003KT CAVOK 12/10 Q1016 NOSIG
An error has occurred. This application may no longer respond until reloaded. Reload 🗙